createdAt,value
2018-08-11T05:02:13.671Z,1000.3
2018-08-11T05:02:33.913Z,1000.3
2018-08-11T05:02:54.138Z,1000.3
2018-08-11T05:03:14.305Z,1000.3
2018-08-11T05:03:34.513Z,1000.3
2018-08-11T05:03:54.712Z,1000.3
2018-08-11T05:04:14.884Z,1000.3
2018-08-11T05:04:35.146Z,1000.3
2018-08-11T05:04:55.390Z,1000.3
2018-08-11T05:05:15.630Z,1000.3
2018-08-11T05:05:35.851Z,1000.3
2018-08-11T05:05:56.112Z,1000.3
2018-08-11T05:06:16.320Z,1000.3
2018-08-11T05:13:41.739Z,1000.3
2018-08-11T05:14:01.955Z,1000.4
2018-08-11T05:14:22.165Z,1000.4
2018-08-11T05:14:42.357Z,1000.4
2018-08-11T05:15:02.529Z,1000.3
2018-08-11T05:15:22.685Z,1000.4
2018-08-11T05:15:42.866Z,1000.4
2018-08-11T05:16:03.063Z,1000.3
2018-08-11T05:16:23.230Z,1000.4
2018-08-11T05:16:43.392Z,1000.3
2018-08-11T05:17:03.548Z,1000.4
2018-08-11T05:17:23.684Z,1000.3
2018-08-11T05:17:43.860Z,1000.3
2018-08-11T05:18:04.002Z,1000.3
2018-08-11T05:18:24.167Z,1000.3
2018-08-11T05:18:44.370Z,1000.4
2018-08-11T05:27:29.387Z,1000.4
2018-08-11T05:27:50.280Z,1000.3
2018-08-11T05:28:10.451Z,1000.4
2018-08-11T05:28:30.615Z,1000.3
2018-08-11T05:28:50.795Z,1000.3
2018-08-11T05:29:10.941Z,1000.3
2018-08-11T05:29:31.152Z,1000.3
2018-08-11T05:29:51.298Z,1000.3
2018-08-11T05:30:11.473Z,1000.3
2018-08-11T05:30:31.623Z,1000.4
2018-08-11T05:30:51.764Z,1000.3
2018-08-11T05:31:11.916Z,1000.3
2018-08-11T05:31:32.348Z,1000.3
2018-08-11T05:31:53.329Z,1000.3
2018-08-11T05:32:13.992Z,1000.3
2018-08-11T05:32:34.142Z,1000.3
2018-08-11T05:32:54.282Z,1000.4
2018-08-11T05:33:14.567Z,1000.4
2018-08-11T05:33:34.710Z,1000.3
2018-08-11T05:33:54.853Z,1000.3
2018-08-11T05:34:15.021Z,1000.3
2018-08-11T05:34:35.170Z,1000.3
2018-08-11T05:40:21.585Z,1000.2
2018-08-11T05:40:42.075Z,1000.2
2018-08-11T05:41:02.355Z,1000.2
2018-08-11T05:41:22.694Z,1000.3
2018-08-11T05:41:43.044Z,1000.2
2018-08-11T05:42:03.266Z,1000.2
2018-08-11T05:42:23.567Z,1000.2
2018-08-11T05:42:43.954Z,1000.3
2018-08-11T05:43:04.236Z,1000.2
2018-08-11T05:43:24.440Z,1000.3
2018-08-11T05:43:44.671Z,1000.2
2018-08-11T05:44:04.866Z,1000.2
2018-08-11T05:44:25.069Z,1000.2
2018-08-11T05:44:45.278Z,1000.2
2018-08-11T05:45:05.450Z,1000.2
2018-08-11T05:45:25.624Z,1000.2
2018-08-11T05:45:45.791Z,1000.2
2018-08-11T05:46:05.967Z,1000.2
2018-08-11T05:46:26.143Z,1000.2
2018-08-11T05:46:46.292Z,1000.2
2018-08-11T05:47:06.563Z,1000.2
2018-08-11T05:47:26.751Z,1000.2
2018-08-11T05:47:46.967Z,1000.2
2018-08-11T05:48:07.166Z,1000.2
2018-08-11T05:48:27.364Z,1000.2
2018-08-11T05:48:47.584Z,1000.2
2018-08-11T05:49:07.808Z,1000.2
2018-08-11T05:49:27.997Z,1000.2
2018-08-11T05:49:48.189Z,1000.2
2018-08-11T05:50:08.369Z,1000.2
2018-08-11T05:50:28.524Z,1000.2
2018-08-11T05:50:48.734Z,1000.2
2018-08-11T05:51:08.936Z,1000.2
2018-08-11T05:51:29.114Z,1000.2
2018-08-11T05:51:49.274Z,1000.2
2018-08-11T05:52:09.474Z,1000.2
2018-08-11T05:52:29.682Z,1000.2
2018-08-11T05:52:49.980Z,1000.2
2018-08-11T05:53:10.225Z,1000.2
2018-08-11T05:53:30.414Z,1000.2
2018-08-11T05:53:51.082Z,1000.2
2018-08-11T05:54:11.422Z,1000.2
2018-08-11T05:54:31.680Z,1000.3
2018-08-11T05:54:51.899Z,1000.2
2018-08-11T05:55:12.156Z,1000.2
2018-08-11T05:55:32.436Z,1000.2
2018-08-11T06:00:47.147Z,1000.3
2018-08-11T06:01:07.405Z,1000.3
2018-08-11T06:01:27.588Z,1000.3
2018-08-11T06:01:47.828Z,1000.3
2018-08-11T06:02:08.073Z,1000.3
2018-08-11T06:02:28.374Z,1000.3
2018-08-11T06:02:48.537Z,1000.3
2018-08-11T06:03:08.693Z,1000.3
2018-08-11T06:03:28.908Z,1000.3
2018-08-11T06:03:49.177Z,1000.3
2018-08-11T06:04:09.383Z,1000.3
2018-08-11T06:04:29.603Z,1000.3
2018-08-11T06:04:49.765Z,1000.3
2018-08-11T06:05:09.994Z,1000.3
2018-08-11T06:05:30.165Z,1000.3
2018-08-11T06:05:50.342Z,1000.3
2018-08-11T06:11:59.439Z,1000.3
2018-08-11T06:12:19.637Z,1000.3
2018-08-11T06:12:39.829Z,1000.3
2018-08-11T06:13:00.012Z,1000.3
2018-08-11T06:13:20.194Z,1000.3
2018-08-11T06:13:40.393Z,1000.3
2018-08-11T06:14:00.674Z,1000.3
2018-08-11T06:14:20.958Z,1000.3
2018-08-11T06:14:41.401Z,1000.3
2018-08-11T06:15:01.656Z,1000.3
2018-08-11T06:15:21.827Z,1000.3
2018-08-11T06:15:42.086Z,1000.3
2018-08-11T06:16:02.513Z,1000.3
2018-08-11T06:16:22.733Z,1000.3
2018-08-11T06:16:42.918Z,1000.3
2018-08-11T06:17:03.174Z,1000.3
2018-08-11T06:17:23.384Z,1000.3
2018-08-11T06:17:43.637Z,1000.3
2018-08-11T06:18:03.848Z,1000.3
2018-08-11T06:18:24.084Z,1000.3
2018-08-11T06:18:44.340Z,1000.3
2018-08-11T06:19:04.584Z,1000.3
2018-08-11T06:19:24.894Z,1000.3
2018-08-11T06:19:45.242Z,1000.3
2018-08-11T06:20:05.489Z,1000.3
2018-08-11T06:20:25.767Z,1000.3
2018-08-11T06:20:46.021Z,1000.3
2018-08-11T06:21:06.329Z,1000.3
2018-08-11T06:21:26.906Z,1000.3
2018-08-11T06:21:47.129Z,1000.3
2018-08-11T06:22:07.404Z,1000.3
2018-08-11T06:22:27.699Z,1000.3
2018-08-11T06:22:47.997Z,1000.3
2018-08-11T06:23:08.181Z,1000.3
2018-08-11T06:23:28.512Z,1000.3
2018-08-11T06:23:48.753Z,1000.3
2018-08-11T06:24:08.997Z,1000.3
2018-08-11T06:24:29.173Z,1000.4
2018-08-11T06:24:49.415Z,1000.3
2018-08-11T06:25:09.632Z,1000.3
2018-08-11T06:25:29.856Z,1000.3
2018-08-11T06:25:50.063Z,1000.3
2018-08-11T06:26:10.313Z,1000.3
2018-08-11T06:26:30.482Z,1000.3
2018-08-11T06:26:50.650Z,1000.3
2018-08-11T06:27:10.818Z,1000.3
2018-08-11T06:27:31.017Z,1000.3
2018-08-11T06:27:51.214Z,1000.3
2018-08-11T06:28:11.407Z,1000.3
2018-08-11T06:28:31.588Z,1000.3
2018-08-11T06:28:51.859Z,1000.3
2018-08-11T06:29:12.081Z,1000.3
2018-08-11T06:29:32.423Z,1000.3
2018-08-11T06:29:52.684Z,1000.3
2018-08-11T06:30:12.889Z,1000.3
2018-08-11T06:30:33.060Z,1000.3
2018-08-11T06:30:53.266Z,1000.3
2018-08-11T06:31:13.445Z,1000.3
2018-08-11T06:31:33.777Z,1000.2
2018-08-11T06:31:54.268Z,1000.2
2018-08-11T06:32:14.476Z,1000.3
2018-08-11T06:32:34.548Z,1000.2
2018-08-11T06:32:54.733Z,1000.2
2018-08-11T06:33:14.913Z,1000.2
2018-08-11T06:33:35.186Z,1000.2
2018-08-11T06:33:55.401Z,1000.2
2018-08-11T06:34:15.623Z,1000.2
2018-08-11T06:34:35.791Z,1000.2
2018-08-11T06:34:55.929Z,1000.2
2018-08-11T06:35:16.098Z,1000.2
2018-08-11T06:35:36.274Z,1000.2
2018-08-11T06:35:56.503Z,1000.2
2018-08-11T06:36:16.743Z,1000.2
2018-08-11T06:36:36.926Z,1000.2
2018-08-11T06:36:57.071Z,1000.2
2018-08-11T06:37:17.260Z,1000.2
2018-08-11T06:37:37.472Z,1000.2
2018-08-11T06:37:57.661Z,1000.2
2018-08-11T06:38:17.817Z,1000.2
2018-08-11T06:38:37.960Z,1000.2
2018-08-11T06:38:58.162Z,1000.2
2018-08-11T06:39:18.358Z,1000.3
2018-08-11T06:39:38.567Z,1000.3
2018-08-11T06:39:58.771Z,1000.2
2018-08-11T06:40:19.016Z,1000.2
2018-08-11T06:40:39.362Z,1000.2
2018-08-11T06:40:59.734Z,1000.2
2018-08-11T06:41:20.116Z,1000.3
2018-08-11T06:41:40.355Z,1000.2
2018-08-11T06:42:00.624Z,1000.2
2018-08-11T06:42:20.790Z,1000.2
2018-08-11T06:42:40.972Z,1000.2
2018-08-11T06:43:01.135Z,1000.2
2018-08-11T06:43:21.401Z,1000.2
2018-08-11T06:43:41.606Z,1000.2
2018-08-11T06:44:01.769Z,1000.2
2018-08-11T06:44:21.950Z,1000.2
2018-08-11T06:44:42.142Z,1000.3
2018-08-11T06:45:02.374Z,1000.2
2018-08-11T06:45:22.567Z,1000.2
2018-08-11T06:45:42.773Z,1000.2
2018-08-11T06:46:02.946Z,1000.2
2018-08-11T06:46:23.177Z,1000.2
2018-08-11T06:46:43.525Z,1000.2
2018-08-11T06:47:03.869Z,1000.2
2018-08-11T06:47:24.022Z,1000.2
2018-08-11T06:47:44.290Z,1000.2
2018-08-11T06:48:04.528Z,1000.2
2018-08-11T06:48:24.751Z,1000.2
2018-08-11T06:48:44.966Z,1000.3
2018-08-11T06:49:05.276Z,1000.3
2018-08-11T06:49:25.679Z,1000.3
2018-08-11T06:49:45.898Z,1000.3
2018-08-11T06:50:06.103Z,1000.3
2018-08-11T06:50:26.483Z,1000.3
2018-08-11T06:50:46.733Z,1000.4
2018-08-11T06:51:06.983Z,1000.3
2018-08-11T06:51:27.235Z,1000.4
2018-08-11T06:51:47.577Z,1000.4
2018-08-11T06:52:07.872Z,1000.4
2018-08-11T06:52:28.161Z,1000.4
2018-08-11T06:52:48.367Z,1000.4
2018-08-11T06:53:08.694Z,1000.4
2018-08-11T06:53:28.976Z,1000.4
2018-08-11T06:53:49.781Z,1000.4
2018-08-11T06:54:09.970Z,1000.4
2018-08-11T06:54:30.266Z,1000.4
2018-08-11T06:54:50.479Z,1000.4
2018-08-11T06:55:10.718Z,1000.4
2018-08-11T06:55:30.976Z,1000.3
2018-08-11T06:55:51.221Z,1000.3
2018-08-11T06:56:11.434Z,1000.3
2018-08-11T06:56:31.681Z,1000.3
2018-08-11T06:56:51.854Z,1000.3
2018-08-11T06:57:12.111Z,1000.2
2018-08-11T06:57:32.407Z,1000.3
2018-08-11T06:57:52.697Z,1000.2
2018-08-11T06:58:12.865Z,1000.2
2018-08-11T06:58:33.068Z,1000.2
2018-08-11T06:58:53.352Z,1000.2
2018-08-11T06:59:13.677Z,1000.2
2018-08-11T06:59:33.954Z,1000.2
2018-08-11T06:59:54.228Z,1000.2
2018-08-11T07:00:14.607Z,1000.2
2018-08-11T07:00:34.822Z,1000.2
2018-08-11T07:00:55.014Z,1000.2
2018-08-11T07:01:15.288Z,1000.2
2018-08-11T07:01:35.536Z,1000.2
2018-08-11T07:01:55.812Z,1000.2
2018-08-11T07:02:16.040Z,1000.2
2018-08-11T07:02:36.279Z,1000.2
2018-08-11T07:02:56.550Z,1000.2
2018-08-11T07:03:16.851Z,1000.2
2018-08-11T07:03:37.606Z,1000.2
2018-08-11T07:03:57.872Z,1000.2
2018-08-11T07:04:18.728Z,1000.2
2018-08-11T07:04:39.020Z,1000.2
2018-08-11T07:04:59.255Z,1000.2
2018-08-11T07:05:20.039Z,1000.2
2018-08-11T07:05:40.413Z,1000.2
2018-08-11T07:06:00.652Z,1000.2
2018-08-11T07:06:20.868Z,1000.2
2018-08-11T07:06:41.147Z,1000.2
2018-08-11T07:07:01.509Z,1000.2
2018-08-11T07:07:21.658Z,1000.2
2018-08-11T07:07:41.889Z,1000.2
2018-08-11T07:08:02.052Z,1000.1
2018-08-11T07:08:22.238Z,1000.2
2018-08-11T07:08:42.447Z,1000.2
2018-08-11T07:09:02.619Z,1000.2
2018-08-11T07:09:22.873Z,1000.2
2018-08-11T07:09:43.052Z,1000.1
2018-08-11T07:10:03.250Z,1000.2
2018-08-11T07:10:23.424Z,1000.2
2018-08-11T07:10:43.620Z,1000.2
2018-08-11T07:11:03.833Z,1000.2
2018-08-11T07:11:24.133Z,1000.2
2018-08-11T07:11:44.405Z,1000.2
2018-08-11T07:12:04.597Z,1000.2
2018-08-11T07:12:24.936Z,1000.2
2018-08-11T07:12:45.292Z,1000.2
2018-08-11T07:13:05.501Z,1000.2
2018-08-11T07:13:25.687Z,1000.2
2018-08-11T07:13:45.890Z,1000.2
2018-08-11T07:14:07.151Z,1000.2
2018-08-11T07:14:27.396Z,1000.2
2018-08-11T07:14:47.773Z,1000.2
2018-08-11T07:15:08.002Z,1000.2
2018-08-11T07:15:28.483Z,1000.2
2018-08-11T07:15:48.748Z,1000.3
2018-08-11T07:16:09.022Z,1000.3
2018-08-11T07:16:29.200Z,1000.3
2018-08-11T07:16:49.505Z,1000.2
2018-08-11T07:17:09.842Z,1000.2
2018-08-11T07:17:30.165Z,1000.3
2018-08-11T07:17:50.482Z,1000.3
2018-08-11T07:18:10.738Z,1000.3
2018-08-11T07:18:31.001Z,1000.3
2018-08-11T07:18:51.248Z,1000.3
2018-08-11T07:19:11.499Z,1000.3
2018-08-11T07:19:31.761Z,1000.3
2018-08-11T07:19:51.952Z,1000.3
2018-08-11T07:20:11.968Z,1000.2
2018-08-11T07:20:32.158Z,1000.2
2018-08-11T07:20:52.393Z,1000.3
2018-08-11T07:21:12.682Z,1000.3
2018-08-11T07:21:33.115Z,1000.3
2018-08-11T07:21:53.339Z,1000.2
2018-08-11T07:22:13.582Z,1000.2
2018-08-11T07:22:33.739Z,1000.2
2018-08-11T07:22:54.016Z,1000.2
2018-08-11T07:23:14.218Z,1000.2
2018-08-11T07:23:34.368Z,1000.2
2018-08-11T07:23:54.590Z,1000.1
2018-08-11T07:24:14.718Z,1000.1
2018-08-11T07:24:34.897Z,1000.1
2018-08-11T07:24:55.088Z,1000.1
2018-08-11T07:25:15.294Z,1000.1
2018-08-11T07:25:35.442Z,1000.1
2018-08-11T07:25:55.671Z,1000.1
2018-08-11T07:26:15.874Z,1000.1
2018-08-11T07:26:36.281Z,1000.1
2018-08-11T07:26:56.274Z,1000.1
2018-08-11T07:27:16.420Z,1000.1
2018-08-11T07:27:36.640Z,1000.1
2018-08-11T07:27:56.846Z,1000.1
2018-08-11T07:28:16.885Z,1000.1
2018-08-11T07:28:37.159Z,1000.1
2018-08-11T07:28:57.327Z,1000.1
2018-08-11T07:29:17.580Z,1000.1
2018-08-11T07:29:37.803Z,1000.1
2018-08-11T07:29:58.098Z,1000.1
2018-08-11T07:30:18.396Z,1000.1
2018-08-11T07:30:38.669Z,1000.1
2018-08-11T07:30:58.993Z,1000.1
2018-08-11T07:31:19.261Z,1000
2018-08-11T07:31:39.559Z,1000
2018-08-11T07:31:59.820Z,1000
2018-08-11T07:32:20.106Z,1000.1
2018-08-11T07:32:40.345Z,1000
2018-08-11T07:33:00.530Z,1000
2018-08-11T07:33:20.741Z,1000.1
2018-08-11T07:33:40.994Z,1000
2018-08-11T07:34:01.209Z,1000
2018-08-11T07:34:22.279Z,1000.1
2018-08-11T07:34:42.563Z,1000
2018-08-11T07:35:02.758Z,1000
2018-08-11T07:35:22.986Z,1000.1
2018-08-11T07:35:43.233Z,1000.1
2018-08-11T07:36:03.655Z,1000.1
2018-08-11T07:36:24.044Z,1000
2018-08-11T07:36:44.287Z,1000
2018-08-11T07:37:04.427Z,1000.1
2018-08-11T07:37:24.650Z,1000.1
2018-08-11T07:37:44.940Z,1000.1
2018-08-11T07:38:05.254Z,1000.1
2018-08-11T07:38:25.495Z,1000.1
2018-08-11T07:38:45.720Z,1000.1
2018-08-11T07:39:06.035Z,1000.1
2018-08-11T07:39:26.462Z,1000.1
2018-08-11T07:39:46.752Z,1000.1
2018-08-11T07:40:07.031Z,1000.1
2018-08-11T07:40:27.309Z,1000
2018-08-11T07:40:47.797Z,1000.1
2018-08-11T07:41:08.050Z,1000.1
2018-08-11T07:41:28.279Z,1000.1
2018-08-11T07:41:48.768Z,1000
2018-08-11T07:42:08.972Z,1000
2018-08-11T07:42:29.247Z,1000
2018-08-11T07:42:49.432Z,1000
2018-08-11T07:43:09.905Z,1000
2018-08-11T07:43:30.198Z,1000.1
2018-08-11T07:43:50.471Z,1000
2018-08-11T07:44:10.734Z,1000
2018-08-11T07:44:30.917Z,1000
2018-08-11T07:44:51.143Z,1000.1
2018-08-11T07:45:11.360Z,1000
2018-08-11T07:45:31.614Z,1000
2018-08-11T07:45:51.837Z,1000
2018-08-11T07:46:12.184Z,1000
2018-08-11T07:46:32.465Z,1000
2018-08-11T07:46:52.646Z,1000
2018-08-11T07:47:12.870Z,1000
2018-08-11T07:47:33.211Z,1000.1
2018-08-11T07:47:54.429Z,1000
2018-08-11T07:48:14.670Z,1000.1
2018-08-11T07:48:34.874Z,1000
2018-08-11T07:48:55.106Z,1000
2018-08-11T07:49:15.448Z,1000.1
2018-08-11T07:49:35.675Z,1000
2018-08-11T07:49:55.864Z,1000.1
2018-08-11T07:50:16.265Z,1000.1
2018-08-11T07:50:36.491Z,1000.1
2018-08-11T07:50:56.813Z,1000.1
2018-08-11T07:51:17.042Z,1000.1
2018-08-11T07:51:37.285Z,1000.1
2018-08-11T07:51:57.550Z,1000.2
2018-08-11T07:52:18.677Z,1000.2
2018-08-11T07:52:38.930Z,1000.1
2018-08-11T07:52:59.157Z,1000.1
2018-08-11T07:53:19.753Z,1000.1
2018-08-11T07:53:39.989Z,1000.1
2018-08-11T07:54:00.155Z,1000.1
2018-08-11T07:54:20.596Z,1000.2
2018-08-11T07:54:40.865Z,1000.1
2018-08-11T07:55:01.075Z,1000.2
2018-08-11T07:55:21.350Z,1000.2
2018-08-11T07:55:41.653Z,1000.1
2018-08-11T07:56:01.961Z,1000.2
2018-08-11T07:56:22.112Z,1000.2
2018-08-11T07:56:42.356Z,1000.2
2018-08-11T07:57:03.217Z,1000.2
2018-08-11T07:57:23.576Z,1000.2
2018-08-11T07:57:43.824Z,1000.2
2018-08-11T07:58:04.077Z,1000.1
2018-08-11T07:58:24.323Z,1000.2
2018-08-11T07:58:45.360Z,1000.1
2018-08-11T07:59:05.879Z,1000.2
2018-08-11T07:59:26.095Z,1000.2
2018-08-11T07:59:46.461Z,1000.2
2018-08-11T08:00:06.643Z,1000.1
2018-08-11T08:00:26.838Z,1000.1
2018-08-11T08:00:47.200Z,1000.2
2018-08-11T08:01:07.477Z,1000.1
2018-08-11T08:01:27.896Z,1000.1
2018-08-11T08:01:48.188Z,1000.1
2018-08-11T08:02:08.467Z,1000.1
2018-08-11T08:02:28.637Z,1000.1
2018-08-11T08:02:48.897Z,1000.2
2018-08-11T08:03:09.065Z,1000.1
2018-08-11T08:03:29.323Z,1000.1
2018-08-11T08:03:49.698Z,1000.1
2018-08-11T08:04:10.006Z,1000.1
2018-08-11T08:04:30.558Z,1000.1
2018-08-11T08:04:50.852Z,1000.2
2018-08-11T08:05:11.116Z,1000.1
2018-08-11T08:05:31.511Z,1000.2
2018-08-11T08:05:51.921Z,1000.2
2018-08-11T08:06:12.167Z,1000.2
2018-08-11T08:06:32.606Z,1000.1
2018-08-11T08:06:53.079Z,1000.1
2018-08-11T08:07:14.375Z,1000.2
2018-08-11T08:07:35.285Z,1000.1
2018-08-11T08:07:55.619Z,1000.2
2018-08-11T08:08:15.856Z,1000.2
2018-08-11T08:08:36.310Z,1000.2
2018-08-11T08:08:56.584Z,1000.2
2018-08-11T08:09:16.541Z,1000.2
2018-08-11T08:09:37.421Z,1000.2
2018-08-11T08:09:57.654Z,1000.1
2018-08-11T08:10:18.192Z,1000.2
2018-08-11T08:10:38.453Z,1000.1
2018-08-11T08:10:58.851Z,1000.2
2018-08-11T08:11:19.189Z,1000.2
2018-08-11T08:11:39.564Z,1000.2
2018-08-11T08:11:59.821Z,1000.1
2018-08-11T08:12:20.019Z,1000.2
2018-08-11T08:12:40.276Z,1000.1
2018-08-11T08:13:00.524Z,1000.1
2018-08-11T08:13:20.726Z,1000.1
2018-08-11T08:13:41.070Z,1000.1
2018-08-11T08:14:01.440Z,1000.1
2018-08-11T08:14:21.699Z,1000.2
2018-08-11T08:14:42.011Z,1000.2
2018-08-11T08:15:02.259Z,1000.1
2018-08-11T08:15:22.682Z,1000.2
2018-08-11T08:15:42.980Z,1000.1
2018-08-11T08:16:03.824Z,1000.1
2018-08-11T08:16:24.138Z,1000.1
2018-08-11T08:16:44.440Z,1000.1
2018-08-11T08:17:04.784Z,1000.1
2018-08-11T08:17:25.190Z,1000.1
2018-08-11T08:17:45.487Z,1000.1
2018-08-11T08:18:06.898Z,1000
2018-08-11T08:18:27.237Z,1000.1
2018-08-11T08:18:47.472Z,1000
2018-08-11T08:19:07.745Z,1000
2018-08-11T08:19:27.948Z,1000
2018-08-11T08:19:48.166Z,1000
2018-08-11T08:20:08.540Z,1000.1
2018-08-11T08:20:28.837Z,1000
2018-08-11T08:20:49.052Z,1000
2018-08-11T08:21:09.317Z,1000
2018-08-11T08:21:29.606Z,1000
2018-08-11T08:21:50.065Z,1000
2018-08-11T08:22:10.252Z,1000
2018-08-11T08:22:30.437Z,1000
2018-08-11T08:22:50.659Z,1000.1
2018-08-11T08:23:10.885Z,1000
2018-08-11T08:23:31.096Z,1000
2018-08-11T08:23:51.443Z,1000
2018-08-11T08:24:11.813Z,1000
2018-08-11T08:24:32.061Z,1000
2018-08-11T08:24:52.222Z,1000
2018-08-11T08:25:12.463Z,1000
2018-08-11T08:25:32.805Z,1000
2018-08-11T08:25:53.137Z,1000
2018-08-11T08:26:13.492Z,1000
2018-08-11T08:26:34.219Z,999.9
2018-08-11T08:26:54.645Z,999.9
2018-08-11T08:27:14.934Z,999.9
2018-08-11T08:27:35.214Z,999.9
2018-08-11T08:27:55.466Z,999.9
2018-08-11T08:28:15.690Z,999.9
2018-08-11T08:28:35.936Z,999.9
2018-08-11T08:28:56.237Z,999.9
2018-08-11T08:29:16.482Z,999.9
2018-08-11T08:29:36.738Z,999.9
2018-08-11T08:29:57.089Z,999.8
2018-08-11T08:30:17.452Z,999.8
2018-08-11T08:30:37.627Z,999.8
2018-08-11T08:30:57.817Z,999.7
2018-08-11T08:31:18.080Z,999.7
2018-08-11T08:31:38.286Z,999.7
2018-08-11T08:31:58.581Z,999.7
2018-08-11T08:32:18.832Z,999.7
2018-08-11T08:32:39.073Z,999.7
2018-08-11T08:32:59.317Z,999.7
2018-08-11T08:33:19.505Z,999.7
2018-08-11T08:33:39.737Z,999.7
2018-08-11T08:34:00.234Z,999.7
2018-08-11T08:34:20.451Z,999.7
2018-08-11T08:34:40.754Z,999.7
2018-08-11T08:35:01.104Z,999.7
2018-08-11T08:35:21.351Z,999.7
2018-08-11T08:35:41.701Z,999.7
2018-08-11T08:36:02.044Z,999.8
2018-08-11T08:36:22.225Z,999.8
2018-08-11T08:36:42.572Z,999.8
2018-08-11T08:37:02.863Z,999.7
2018-08-11T08:37:23.120Z,999.7
2018-08-11T08:37:45.528Z,999.7
2018-08-11T08:38:06.408Z,999.7
2018-08-11T08:38:26.669Z,999.7
2018-08-11T08:38:46.896Z,999.7
2018-08-11T08:39:07.086Z,999.7
2018-08-11T08:39:27.340Z,999.7
2018-08-11T08:39:47.609Z,999.7
2018-08-11T08:40:07.773Z,999.7
2018-08-11T08:40:27.967Z,999.7
2018-08-11T08:40:48.343Z,999.7
2018-08-11T08:41:09.351Z,999.7
2018-08-11T08:41:29.667Z,999.7
2018-08-11T08:41:50.025Z,999.7
2018-08-11T08:42:10.503Z,999.7
2018-08-11T08:42:30.750Z,999.7
2018-08-11T08:42:51.244Z,999.7
2018-08-11T08:43:11.543Z,999.7
2018-08-11T08:43:31.924Z,999.6
2018-08-11T08:43:52.300Z,999.6
2018-08-11T08:44:13.388Z,999.7
2018-08-11T08:44:33.678Z,999.6
2018-08-11T08:44:53.973Z,999.6
2018-08-11T08:45:14.588Z,999.7
2018-08-11T08:45:34.893Z,999.7
2018-08-11T08:45:55.078Z,999.7
2018-08-11T08:46:15.312Z,999.6
2018-08-11T08:46:35.603Z,999.7
2018-08-11T08:46:55.960Z,999.7
2018-08-11T08:47:16.647Z,999.7
2018-08-11T08:47:37.152Z,999.7
2018-08-11T08:47:57.639Z,999.7
2018-08-11T08:48:17.889Z,999.7
2018-08-11T08:48:38.473Z,999.7
2018-08-11T08:49:07.340Z,999.7
2018-08-11T08:49:29.460Z,999.7
2018-08-11T08:49:50.499Z,999.7
2018-08-11T08:50:10.717Z,999.7
2018-08-11T08:50:31.059Z,999.7
2018-08-11T08:50:51.428Z,999.7
2018-08-11T08:51:11.921Z,999.7
2018-08-11T08:51:32.272Z,999.8
2018-08-11T08:51:52.563Z,999.8
2018-08-11T08:52:12.794Z,999.8
2018-08-11T08:52:33.043Z,999.8
2018-08-11T08:52:53.497Z,999.8
2018-08-11T08:53:13.821Z,999.8
2018-08-11T08:53:34.434Z,999.8
2018-08-11T08:53:55.254Z,999.8
2018-08-11T08:54:15.492Z,999.8
2018-08-11T08:54:36.030Z,999.8
2018-08-11T08:54:56.689Z,999.8
2018-08-11T08:55:17.032Z,999.9
2018-08-11T08:55:37.434Z,999.9
2018-08-11T08:55:57.781Z,999.9
2018-08-11T08:56:18.044Z,999.8
2018-08-11T08:56:38.288Z,999.8
2018-08-11T08:56:58.700Z,999.8
2018-08-11T08:57:19.279Z,999.8
2018-08-11T08:57:39.397Z,999.8
2018-08-11T08:57:59.778Z,999.8
2018-08-11T08:58:20.186Z,999.8
2018-08-11T08:58:40.428Z,999.8
2018-08-11T08:59:00.784Z,999.8
2018-08-11T08:59:21.088Z,999.8
2018-08-11T08:59:41.732Z,999.8
2018-08-11T09:00:01.923Z,999.7
2018-08-11T09:00:22.174Z,999.7
2018-08-11T09:00:43.387Z,999.7
2018-08-11T09:01:03.552Z,999.7
2018-08-11T09:01:23.776Z,999.7
2018-08-11T09:01:43.991Z,999.6
2018-08-11T09:02:04.182Z,999.7
2018-08-11T09:02:24.514Z,999.6
2018-08-11T09:02:44.978Z,999.7
2018-08-11T09:03:05.414Z,999.6
2018-08-11T09:03:25.643Z,999.7
2018-08-11T09:03:45.849Z,999.7
2018-08-11T09:04:06.217Z,999.6
2018-08-11T09:04:26.509Z,999.6
2018-08-11T09:04:46.981Z,999.7
2018-08-11T09:05:07.634Z,999.7
2018-08-11T09:05:27.900Z,999.6
2018-08-11T09:05:47.996Z,999.7
2018-08-11T09:06:08.196Z,999.6
2018-08-11T09:06:28.299Z,999.6
2018-08-11T09:06:48.621Z,999.7
2018-08-11T09:07:08.939Z,999.7
2018-08-11T09:07:29.197Z,999.7
2018-08-11T09:07:49.529Z,999.7
2018-08-11T09:08:09.828Z,999.7
2018-08-11T09:08:30.019Z,999.7
2018-08-11T09:08:50.216Z,999.7
2018-08-11T09:09:10.487Z,999.7
2018-08-11T09:09:30.867Z,999.7
2018-08-11T09:09:51.121Z,999.6
2018-08-11T09:10:11.612Z,999.7
2018-08-11T09:10:32.048Z,999.7
2018-08-11T09:10:52.277Z,999.7
2018-08-11T09:11:12.526Z,999.6
2018-08-11T09:11:32.747Z,999.6
2018-08-11T09:11:53.063Z,999.6
2018-08-11T09:12:13.349Z,999.6
2018-08-11T09:12:33.619Z,999.6
2018-08-11T09:12:53.908Z,999.6
2018-08-11T09:13:14.136Z,999.5
2018-08-11T09:13:34.397Z,999.6
2018-08-11T09:13:54.925Z,999.6
2018-08-11T09:14:15.213Z,999.5
2018-08-11T09:19:14.240Z,999.4
2018-08-11T09:19:34.567Z,999.5
2018-08-11T09:19:54.793Z,999.4
2018-08-11T09:20:15.015Z,999.4
2018-08-11T09:20:35.433Z,999.4
2018-08-11T09:20:55.687Z,999.4
2018-08-11T09:21:15.970Z,999.4
2018-08-11T09:21:36.305Z,999.4
2018-08-11T09:21:57.107Z,999.4
2018-08-11T09:22:17.330Z,999.4
2018-08-11T09:22:37.575Z,999.4
2018-08-11T09:22:58.001Z,999.4
2018-08-11T09:23:18.348Z,999.4
2018-08-11T09:23:38.766Z,999.4
2018-08-11T09:23:59.101Z,999.4
2018-08-11T09:24:19.365Z,999.4
2018-08-11T09:24:39.637Z,999.4
2018-08-11T09:24:59.883Z,999.4
2018-08-11T09:25:20.357Z,999.4
2018-08-11T09:25:40.605Z,999.4
2018-08-11T09:26:01.343Z,999.4
2018-08-11T09:26:21.740Z,999.4
2018-08-11T09:33:51.036Z,999.5
2018-08-11T09:34:11.423Z,999.6
2018-08-11T09:34:31.990Z,999.6
2018-08-11T09:34:52.479Z,999.6
2018-08-11T09:35:12.812Z,999.6
2018-08-11T09:35:33.088Z,999.6
2018-08-11T09:35:53.543Z,999.5
2018-08-11T09:36:13.844Z,999.5
2018-08-11T09:36:34.218Z,999.5
2018-08-11T09:36:54.655Z,999.5
2018-08-11T09:37:15.078Z,999.5
2018-08-11T09:37:35.379Z,999.5
2018-08-11T09:37:55.765Z,999.5
2018-08-11T09:38:16.048Z,999.5
2018-08-11T09:38:36.314Z,999.5
2018-08-11T09:38:58.437Z,999.5
2018-08-11T09:39:18.773Z,999.5
2018-08-11T09:39:38.992Z,999.6
2018-08-11T09:40:00.859Z,999.6
2018-08-11T09:40:21.184Z,999.5
2018-08-11T09:40:41.463Z,999.5
2018-08-11T09:41:01.723Z,999.6
2018-08-11T09:41:21.889Z,999.6
2018-08-11T09:41:42.288Z,999.5
2018-08-11T09:42:02.612Z,999.5
2018-08-11T09:42:22.997Z,999.5
2018-08-11T09:42:44.460Z,999.5
2018-08-11T09:43:04.773Z,999.6
2018-08-11T09:43:25.767Z,999.6
2018-08-11T09:43:46.135Z,999.6
2018-08-11T09:44:06.439Z,999.6
2018-08-11T09:44:26.661Z,999.6
2018-08-11T09:44:46.895Z,999.6
2018-08-11T09:45:07.128Z,999.6
2018-08-11T09:45:27.342Z,999.6
2018-08-11T09:45:47.716Z,999.6
2018-08-11T09:46:07.988Z,999.6
2018-08-11T09:46:28.109Z,999.6
2018-08-11T09:46:48.368Z,999.5
2018-08-11T09:47:09.468Z,999.5
2018-08-11T09:47:29.723Z,999.6
2018-08-11T09:47:49.961Z,999.6
2018-08-11T09:48:10.210Z,999.6
2018-08-11T09:48:30.389Z,999.6
2018-08-11T09:48:51.309Z,999.6
2018-08-11T09:49:11.531Z,999.6
2018-08-11T09:49:31.813Z,999.6
2018-08-11T09:49:52.086Z,999.6
2018-08-11T09:50:12.639Z,999.6
2018-08-11T09:50:32.827Z,999.5
2018-08-11T09:50:53.053Z,999.5
2018-08-11T09:51:13.311Z,999.5
2018-08-11T09:51:33.706Z,999.5
2018-08-11T09:51:53.932Z,999.5
2018-08-11T09:52:14.114Z,999.5
2018-08-11T09:52:34.298Z,999.5
2018-08-11T09:52:54.525Z,999.5
2018-08-11T09:53:14.745Z,999.5
2018-08-11T09:53:34.970Z,999.5
2018-08-11T09:53:55.137Z,999.5
2018-08-11T09:54:15.517Z,999.6
2018-08-11T09:54:35.711Z,999.5
2018-08-11T09:54:55.952Z,999.5
2018-08-11T09:55:16.129Z,999.5
2018-08-11T09:55:36.377Z,999.6
2018-08-11T09:55:56.663Z,999.6
2018-08-11T09:56:16.841Z,999.6
2018-08-11T09:56:37.601Z,999.6
2018-08-11T09:56:57.846Z,999.6
2018-08-11T09:57:17.988Z,999.5
2018-08-11T09:57:38.235Z,999.6
2018-08-11T09:57:58.498Z,999.5
2018-08-11T09:58:18.743Z,999.6
2018-08-11T09:58:38.975Z,999.5
2018-08-11T09:58:59.255Z,999.5
2018-08-11T09:59:19.490Z,999.5
2018-08-11T09:59:39.645Z,999.5
2018-08-11T09:59:59.883Z,999.5
2018-08-11T10:00:20.113Z,999.6
2018-08-11T10:00:40.369Z,999.6
2018-08-11T10:01:00.597Z,999.5
2018-08-11T10:01:20.786Z,999.5
2018-08-11T10:01:41.030Z,999.6
2018-08-11T10:02:01.301Z,999.5
2018-08-11T10:02:21.469Z,999.5
2018-08-11T10:02:42.507Z,999.6